createdAt,value
2022-10-09T00:00:13.700Z,1.38
2022-10-09T00:02:40.251Z,1.70
2022-10-09T00:05:07.070Z,1.40
2022-10-09T00:07:42.601Z,1.60
2022-10-09T00:10:09.257Z,1.05
2022-10-09T00:12:41.401Z,1.15
2022-10-09T00:15:08.149Z,1.10
2022-10-09T00:17:34.555Z,0.98
2022-10-09T00:20:00.983Z,1.20
2022-10-09T00:22:31.252Z,1.13
2022-10-09T00:24:57.657Z,0.98
2022-10-09T00:27:24.781Z,1.45
2022-10-09T00:29:51.453Z,0.68
2022-10-09T00:32:18.414Z,0.97
2022-10-09T00:34:53.870Z,0.90
2022-10-09T00:37:20.421Z,0.90
2022-10-09T00:39:49.514Z,1.40
2022-10-09T00:42:15.971Z,1.13
2022-10-09T00:44:58.183Z,1.27
2022-10-09T00:47:36.777Z,0.80
2022-10-09T00:50:40.255Z,1.10
2022-10-09T00:53:09.280Z,1.00
2022-10-09T00:55:37.797Z,1.20
2022-10-09T00:58:04.909Z,0.80
2022-10-09T01:00:31.464Z,0.60
2022-10-09T01:02:58.107Z,1.17
2022-10-09T01:05:52.001Z,1.00
2022-10-09T01:08:45.448Z,1.02
2022-10-09T01:11:21.097Z,1.17
2022-10-09T01:13:47.421Z,1.02
2022-10-09T01:16:35.963Z,1.00
2022-10-09T01:19:39.852Z,0.85
2022-10-09T01:23:04.153Z,0.93
2022-10-09T01:26:01.700Z,0.60
2022-10-09T01:28:30.397Z,0.88
2022-10-09T01:31:03.146Z,0.98
2022-10-09T01:33:31.617Z,1.23
2022-10-09T01:35:59.701Z,0.70
2022-10-09T01:38:28.873Z,0.60
2022-10-09T01:41:13.206Z,1.00
2022-10-09T01:43:45.528Z,0.95
2022-10-09T01:46:25.685Z,0.93
2022-10-09T01:49:29.734Z,1.10
2022-10-09T01:52:16.932Z,0.80
2022-10-09T01:55:08.367Z,0.93
2022-10-09T01:57:52.596Z,1.00
2022-10-09T02:00:19.476Z,0.77
2022-10-09T02:02:48.368Z,0.93
2022-10-09T02:05:23.365Z,1.10
2022-10-09T02:07:49.987Z,0.68
2022-10-09T02:10:18.672Z,0.90
2022-10-09T02:12:50.912Z,0.50
2022-10-09T02:15:17.837Z,0.80
2022-10-09T02:17:54.821Z,1.30
2022-10-09T02:20:30.236Z,0.73
2022-10-09T02:22:58.462Z,0.90
2022-10-09T02:25:25.026Z,0.60
2022-10-09T02:27:51.481Z,0.68
2022-10-09T02:30:20.159Z,0.77
2022-10-09T02:32:51.990Z,0.50
2022-10-09T02:35:18.622Z,0.98
2022-10-09T02:37:45.003Z,1.20
2022-10-09T02:40:11.406Z,0.52
2022-10-09T02:42:37.945Z,0.70
2022-10-09T02:45:05.031Z,0.82
2022-10-09T02:50:13.086Z,0.77
2022-10-09T02:52:39.638Z,0.70
2022-10-09T02:55:06.381Z,0.93
2022-10-09T02:57:32.902Z,0.80
2022-10-09T03:00:02.070Z,0.85
2022-10-09T03:02:28.545Z,0.85
2022-10-09T03:04:54.993Z,0.57
2022-10-09T03:07:21.372Z,0.73
2022-10-09T03:09:47.764Z,0.57
2022-10-09T03:12:16.184Z,0.70
2022-10-09T03:14:45.608Z,0.98
2022-10-09T03:17:12.300Z,0.50
2022-10-09T03:19:38.664Z,0.77
2022-10-09T03:22:05.092Z,0.90
2022-10-09T03:24:31.878Z,0.90
2022-10-09T03:27:07.233Z,0.82
2022-10-09T03:29:33.609Z,0.73
2022-10-09T03:32:00.115Z,0.77
2022-10-09T03:34:32.386Z,0.95
2022-10-09T03:36:58.741Z,0.93
2022-10-09T03:39:25.264Z,0.70
2022-10-09T03:41:51.624Z,0.65
2022-10-09T03:44:18.009Z,0.40
2022-10-09T03:46:44.422Z,0.77
2022-10-09T03:49:11.414Z,0.77
2022-10-09T03:51:37.960Z,0.90
2022-10-09T03:54:04.651Z,0.75
2022-10-09T03:56:31.229Z,0.70
2022-10-09T03:58:57.613Z,0.77
2022-10-09T04:01:24.379Z,0.50
2022-10-09T04:03:51.019Z,0.65
2022-10-09T04:06:17.449Z,0.85
2022-10-09T04:08:43.952Z,0.80
2022-10-09T04:11:10.316Z,0.57
2022-10-09T04:13:39.936Z,0.77
2022-10-09T04:16:06.754Z,0.90
2022-10-09T04:18:33.166Z,1.27
2022-10-09T04:20:59.719Z,0.90
2022-10-09T04:23:27.458Z,0.73
2022-10-09T04:25:54.920Z,0.70
2022-10-09T04:28:22.168Z,0.93
2022-10-09T04:30:48.693Z,0.90
2022-10-09T04:33:15.273Z,0.60
2022-10-09T04:35:45.634Z,0.50
2022-10-09T04:38:12.452Z,0.80
2022-10-09T04:40:38.874Z,0.70
2022-10-09T04:45:59.039Z,0.93
2022-10-09T04:48:25.954Z,1.08
2022-10-09T04:50:52.511Z,1.10
2022-10-09T04:53:18.893Z,0.70
2022-10-09T04:55:45.609Z,1.23
2022-10-09T04:58:13.092Z,0.70
2022-10-09T05:00:41.794Z,1.10
2022-10-09T05:03:08.776Z,1.10
2022-10-09T05:05:35.412Z,0.73
2022-10-09T05:08:02.096Z,1.00
2022-10-09T05:10:28.645Z,1.08
2022-10-09T05:12:55.074Z,0.98
2022-10-09T05:15:24.029Z,1.10
2022-10-09T05:17:50.947Z,1.20
2022-10-09T05:20:17.577Z,1.03
2022-10-09T05:22:44.783Z,1.02
2022-10-09T05:25:11.656Z,1.48
2022-10-09T05:27:38.215Z,1.10
2022-10-09T05:30:08.132Z,1.40
2022-10-09T05:32:34.699Z,1.27
2022-10-09T05:35:06.615Z,0.98
2022-10-09T05:37:33.009Z,1.50
2022-10-09T05:40:02.666Z,1.45
2022-10-09T05:42:29.560Z,1.15
2022-10-09T05:44:55.987Z,1.13
2022-10-09T05:47:30.572Z,1.30
2022-10-09T05:49:56.944Z,1.02
2022-10-09T05:52:23.543Z,1.55
2022-10-09T05:54:50.448Z,1.33
2022-10-09T05:57:16.828Z,1.40
2022-10-09T05:59:43.873Z,1.30
2022-10-09T06:02:10.438Z,1.30
2022-10-09T06:04:36.819Z,1.25
2022-10-09T06:07:03.319Z,0.90
2022-10-09T06:09:29.690Z,1.20
2022-10-09T06:11:56.144Z,1.20
2022-10-09T06:14:38.231Z,1.48
2022-10-09T06:17:07.813Z,1.08
2022-10-09T06:19:34.434Z,1.50
2022-10-09T06:22:09.943Z,1.40
2022-10-09T06:24:36.834Z,1.42
2022-10-09T06:27:03.589Z,1.45
2022-10-09T06:29:30.631Z,1.45
2022-10-09T06:31:57.206Z,1.05
2022-10-09T06:34:24.086Z,1.60
2022-10-09T06:36:50.718Z,1.02
2022-10-09T06:39:20.217Z,0.93
2022-10-09T06:41:49.601Z,1.17
2022-10-09T06:44:17.278Z,1.40
2022-10-09T06:46:48.563Z,1.30
2022-10-09T06:49:14.995Z,1.42
2022-10-09T06:51:49.998Z,1.52
2022-10-09T06:54:17.455Z,2.58
2022-10-09T06:56:53.032Z,5.68
2022-10-09T06:59:19.500Z,4.17
2022-10-09T07:01:45.911Z,2.53
2022-10-09T07:04:14.668Z,1.70
2022-10-09T07:06:43.955Z,1.70
2022-10-09T07:09:12.559Z,1.60
2022-10-09T07:11:49.202Z,1.53
2022-10-09T07:14:16.311Z,1.70
2022-10-09T07:16:45.960Z,1.70
2022-10-09T07:19:13.687Z,2.33
2022-10-09T07:21:42.954Z,2.53
2022-10-09T07:24:11.097Z,2.73
2022-10-09T07:26:40.037Z,2.08
2022-10-09T07:29:09.167Z,2.30
2022-10-09T07:31:42.924Z,2.47
2022-10-09T07:34:09.638Z,2.50
2022-10-09T07:36:36.305Z,2.93
2022-10-09T07:39:09.222Z,2.88
2022-10-09T07:41:35.709Z,3.20
2022-10-09T07:44:02.646Z,2.00
2022-10-09T07:46:33.273Z,2.70
2022-10-09T07:49:01.244Z,3.47
2022-10-09T07:51:35.597Z,2.78
2022-10-09T07:54:02.762Z,2.40
2022-10-09T07:56:31.961Z,2.45
2022-10-09T07:59:00.596Z,2.97
2022-10-09T08:01:28.344Z,2.42
2022-10-09T08:03:55.471Z,1.95
2022-10-09T08:06:22.257Z,2.20
2022-10-09T08:08:53.588Z,2.72
2022-10-09T08:11:30.373Z,2.78
2022-10-09T08:13:59.784Z,2.40
2022-10-09T08:19:31.836Z,2.10
2022-10-09T08:22:16.308Z,2.53
2022-10-09T08:24:51.693Z,2.25
2022-10-09T08:30:24.719Z,2.53
2022-10-09T08:32:54.006Z,2.17
2022-10-09T08:35:40.568Z,2.03
2022-10-09T08:38:07.293Z,2.83
2022-10-09T08:40:36.530Z,2.40
2022-10-09T08:43:06.641Z,2.60
2022-10-09T08:45:35.443Z,2.20
2022-10-09T08:48:26.547Z,2.13
2022-10-09T08:51:05.543Z,2.00
2022-10-09T08:53:34.732Z,2.63
2022-10-09T08:56:03.319Z,2.20
2022-10-09T08:58:43.800Z,2.17
2022-10-09T09:01:32.678Z,1.75
2022-10-09T09:04:37.690Z,1.85
2022-10-09T09:07:31.863Z,2.38
2022-10-09T09:10:14.760Z,2.55
2022-10-09T09:12:50.730Z,2.63
2022-10-09T09:15:45.048Z,2.50
2022-10-09T09:18:29.970Z,2.45
2022-10-09T09:21:04.997Z,2.58
2022-10-09T09:23:42.519Z,2.25
2022-10-09T09:26:21.735Z,2.30
2022-10-09T09:31:54.562Z,2.45
2022-10-09T09:34:55.909Z,1.90
2022-10-09T09:37:23.330Z,1.95
2022-10-09T09:40:36.332Z,2.25
2022-10-09T09:43:22.548Z,2.05
2022-10-09T09:46:16.985Z,1.77
2022-10-09T09:49:00.183Z,1.40
2022-10-09T09:51:36.048Z,2.08
2022-10-09T09:54:31.095Z,1.80
2022-10-09T09:57:17.079Z,1.52
2022-10-09T10:00:30.986Z,1.60
2022-10-09T10:03:17.080Z,1.83
2022-10-09T10:05:44.481Z,2.28
2022-10-09T10:08:41.873Z,1.45
2022-10-09T10:11:18.728Z,1.20
2022-10-09T10:13:54.503Z,1.30
2022-10-09T10:16:29.505Z,1.50
2022-10-09T10:22:42.695Z,1.50
2022-10-09T10:25:34.312Z,1.63
2022-10-09T10:28:22.779Z,1.75
2022-10-09T10:30:50.675Z,1.80
2022-10-09T10:33:47.005Z,2.30
2022-10-09T10:39:50.245Z,1.67
2022-10-09T10:43:03.429Z,1.67
2022-10-09T10:46:18.336Z,1.63
2022-10-09T10:48:53.995Z,1.73
2022-10-09T10:51:35.722Z,1.65
2022-10-09T10:54:17.825Z,1.50
2022-10-09T10:56:55.936Z,1.50
2022-10-09T11:00:00.536Z,1.20
2022-10-09T11:03:08.829Z,1.40
2022-10-09T11:06:27.510Z,1.17
2022-10-09T11:09:39.272Z,1.40
2022-10-09T11:12:50.603Z,1.60
2022-10-09T11:16:04.338Z,1.50
2022-10-09T11:22:47.061Z,2.10
2022-10-09T11:26:08.811Z,2.13
2022-10-09T11:28:57.201Z,1.70
2022-10-09T11:31:29.667Z,1.77
2022-10-09T11:34:46.849Z,1.23
2022-10-09T11:37:19.269Z,1.33
2022-10-09T11:39:46.432Z,1.33
2022-10-09T11:42:21.520Z,1.33
2022-10-09T11:45:24.475Z,1.48
2022-10-09T11:48:35.334Z,1.60
2022-10-09T11:54:44.045Z,1.15
2022-10-09T11:57:15.279Z,1.20
2022-10-09T11:59:48.187Z,1.33
2022-10-09T12:02:27.342Z,0.88
2022-10-09T12:04:55.381Z,1.10
2022-10-09T12:07:36.674Z,0.93
2022-10-09T12:10:20.354Z,1.00
2022-10-09T12:13:03.314Z,1.20
2022-10-09T12:15:54.860Z,1.42
2022-10-09T12:18:32.357Z,0.93
2022-10-09T12:21:23.226Z,1.25
2022-10-09T12:23:58.921Z,0.98
2022-10-09T12:26:31.553Z,1.10
2022-10-09T12:29:01.590Z,1.10
2022-10-09T12:31:51.162Z,0.95
2022-10-09T12:34:25.697Z,1.00
2022-10-09T12:37:02.695Z,0.90
2022-10-09T12:39:36.614Z,1.15
2022-10-09T12:42:04.386Z,1.67
2022-10-09T12:45:10.505Z,1.60
2022-10-09T12:47:45.741Z,1.92
2022-10-09T12:50:12.338Z,1.67
2022-10-09T12:52:59.788Z,1.90
2022-10-09T12:55:35.244Z,1.70
2022-10-09T12:58:21.416Z,2.28
2022-10-09T13:01:11.147Z,2.00
2022-10-09T13:03:55.032Z,2.03
2022-10-09T13:06:26.046Z,1.80
2022-10-09T13:08:56.384Z,2.00
2022-10-09T13:11:42.398Z,1.90
2022-10-09T13:14:50.996Z,1.90
2022-10-09T13:17:47.145Z,1.90
2022-10-09T13:20:32.568Z,1.40
2022-10-09T13:29:48.917Z,2.03
2022-10-09T13:32:24.452Z,1.90
2022-10-09T13:34:57.953Z,1.90
2022-10-09T13:37:41.209Z,2.20
2022-10-09T13:40:33.209Z,1.90
2022-10-09T13:43:06.283Z,1.83
2022-10-09T13:45:32.792Z,2.08
2022-10-09T13:48:03.117Z,1.70
2022-10-09T13:50:29.748Z,1.70
2022-10-09T13:53:14.057Z,1.15
2022-10-09T13:55:49.807Z,1.70
2022-10-09T13:58:16.362Z,1.92
2022-10-09T14:00:45.279Z,1.90
2022-10-09T14:03:11.701Z,1.80
2022-10-09T14:05:38.448Z,1.80
2022-10-09T14:08:05.608Z,1.80
2022-10-09T14:10:42.814Z,1.92
2022-10-09T14:15:53.039Z,2.92
2022-10-09T14:18:25.483Z,2.08
2022-10-09T14:20:59.136Z,2.30
2022-10-09T14:23:41.816Z,1.95
2022-10-09T14:26:08.227Z,2.30
2022-10-09T14:28:36.514Z,1.60
2022-10-09T14:31:07.148Z,1.52
2022-10-09T14:33:33.913Z,1.63
2022-10-09T14:36:15.183Z,2.63
2022-10-09T14:38:42.709Z,3.78
2022-10-09T14:41:09.757Z,2.17
2022-10-09T14:43:48.297Z,1.45
2022-10-09T14:46:17.098Z,1.60
2022-10-09T14:48:48.807Z,1.52
2022-10-09T14:51:18.018Z,3.10
2022-10-09T14:53:44.411Z,3.30
2022-10-09T14:56:13.689Z,6.40
2022-10-09T14:58:46.823Z,4.22
2022-10-09T15:01:26.062Z,5.93
2022-10-09T15:15:25.403Z,1.80
2022-10-09T15:27:01.242Z,1.48
2022-10-09T15:33:01.795Z,1.38
2022-10-09T15:35:30.892Z,1.03
2022-10-09T15:38:02.814Z,1.10
2022-10-09T15:40:44.940Z,1.00
2022-10-09T15:43:38.968Z,1.13
2022-10-09T16:01:12.977Z,0.80
2022-10-09T16:04:48.001Z,0.70
2022-10-09T16:07:14.720Z,0.90
2022-10-09T16:09:52.682Z,0.90
2022-10-09T16:12:21.811Z,0.80
2022-10-09T16:14:48.286Z,0.88
2022-10-09T16:17:17.662Z,0.90
2022-10-09T16:20:02.918Z,0.95
2022-10-09T16:27:56.214Z,1.70
2022-10-09T16:31:05.485Z,1.50
2022-10-09T16:33:37.785Z,2.35
2022-10-09T16:39:34.318Z,2.13
2022-10-09T16:46:46.985Z,1.87
2022-10-09T16:49:37.834Z,1.80
2022-10-09T16:55:03.148Z,2.15
2022-10-09T16:57:29.687Z,2.40
2022-10-09T16:59:56.442Z,1.87
2022-10-09T17:02:49.684Z,2.45
2022-10-09T17:05:28.866Z,2.65
2022-10-09T17:07:56.351Z,1.98
2022-10-09T17:13:03.208Z,1.30
2022-10-09T17:15:29.861Z,1.40
2022-10-09T17:18:11.410Z,1.33
2022-10-09T17:20:38.811Z,1.50
2022-10-09T17:23:16.140Z,1.50
2022-10-09T17:25:44.038Z,1.60
2022-10-09T17:28:19.767Z,1.33
2022-10-09T17:30:46.217Z,1.38
2022-10-09T17:34:21.474Z,1.45
2022-10-09T17:36:51.796Z,1.67
2022-10-09T17:39:18.311Z,1.53
2022-10-09T17:41:47.603Z,1.35
2022-10-09T17:44:23.310Z,1.58
2022-10-09T17:47:10.414Z,1.40
2022-10-09T17:49:37.045Z,1.83
2022-10-09T17:52:03.811Z,1.83
2022-10-09T17:54:33.458Z,1.98
2022-10-09T17:57:13.390Z,2.42
2022-10-09T17:59:40.035Z,2.50
2022-10-09T18:02:06.497Z,2.03
2022-10-09T18:04:32.969Z,2.37
2022-10-09T18:07:14.227Z,4.70
2022-10-09T18:09:40.709Z,5.03
2022-10-09T18:12:07.153Z,4.45
2022-10-09T18:14:39.386Z,3.72
2022-10-09T18:17:06.057Z,3.90
2022-10-09T18:19:35.491Z,3.17
2022-10-09T18:22:01.915Z,2.70
2022-10-09T18:24:28.557Z,3.08
2022-10-09T18:26:54.984Z,3.05
2022-10-09T18:29:22.601Z,3.57
2022-10-09T18:31:50.525Z,5.93
2022-10-09T18:34:17.074Z,6.68
2022-10-09T18:36:43.453Z,7.40
2022-10-09T18:39:14.519Z,7.35
2022-10-09T18:41:41.356Z,6.70
2022-10-09T18:44:12.779Z,5.32
2022-10-09T18:46:42.576Z,4.40
2022-10-09T18:49:11.810Z,4.47
2022-10-09T18:51:40.777Z,4.03
2022-10-09T18:54:08.329Z,4.03
2022-10-09T18:56:36.654Z,10.23
2022-10-09T18:59:10.470Z,8.07
2022-10-09T19:01:36.999Z,7.57
2022-10-09T19:04:13.003Z,6.68
2022-10-09T19:06:39.553Z,5.67
2022-10-09T19:09:06.549Z,7.10
2022-10-09T19:11:34.187Z,6.20
2022-10-09T19:14:00.996Z,5.57
2022-10-09T19:16:33.048Z,4.97
2022-10-09T19:19:00.015Z,5.23
2022-10-09T19:21:26.451Z,4.38
2022-10-09T19:23:53.903Z,4.38
2022-10-09T19:26:22.007Z,4.60
2022-10-09T19:28:48.511Z,4.03
2022-10-09T19:31:16.437Z,4.80
2022-10-09T19:33:43.102Z,3.88
2022-10-09T19:36:12.647Z,4.25
2022-10-09T19:38:39.424Z,4.40
2022-10-09T19:41:08.552Z,4.47
2022-10-09T19:43:36.557Z,4.60
2022-10-09T19:46:18.014Z,4.30
2022-10-09T19:48:45.763Z,3.30
2022-10-09T19:51:26.393Z,3.63
2022-10-09T19:53:53.679Z,3.70
2022-10-09T19:56:26.350Z,4.40
2022-10-09T19:58:54.481Z,4.05
2022-10-09T20:01:24.078Z,4.45
2022-10-09T20:04:00.211Z,4.40
2022-10-09T20:06:27.877Z,4.00
2022-10-09T20:08:54.281Z,3.97
2022-10-09T20:11:21.180Z,3.97
2022-10-09T20:13:53.454Z,3.80
2022-10-09T20:16:22.909Z,3.80
2022-10-09T20:18:49.954Z,3.65
2022-10-09T20:21:18.038Z,3.60
2022-10-09T20:23:45.183Z,3.15
2022-10-09T20:26:18.435Z,3.80
2022-10-09T20:28:46.173Z,3.42
2022-10-09T20:31:17.979Z,3.00
2022-10-09T20:33:45.955Z,2.87
2022-10-09T20:36:26.159Z,3.38
2022-10-09T20:38:58.384Z,3.22
2022-10-09T20:41:25.998Z,2.97
2022-10-09T20:43:53.907Z,3.15
2022-10-09T20:46:21.783Z,2.97
2022-10-09T20:48:48.593Z,3.15
2022-10-09T20:51:15.525Z,3.50
2022-10-09T20:53:42.043Z,3.13
2022-10-09T20:56:11.584Z,3.55
2022-10-09T20:58:39.106Z,3.63
2022-10-09T21:01:10.407Z,3.85
2022-10-09T21:03:38.238Z,3.35
2022-10-09T21:06:11.300Z,2.97
2022-10-09T21:08:38.833Z,3.65
2022-10-09T21:11:11.174Z,3.43
2022-10-09T21:13:38.911Z,2.88
2022-10-09T21:16:11.550Z,3.35
2022-10-09T21:18:39.168Z,3.30
2022-10-09T21:21:07.892Z,3.45
2022-10-09T21:23:35.333Z,3.40
2022-10-09T21:26:02.452Z,3.35
2022-10-09T21:28:29.336Z,3.28
2022-10-09T21:30:55.884Z,3.88
2022-10-09T21:33:22.290Z,3.28
2022-10-09T21:35:51.267Z,3.40
2022-10-09T21:38:19.918Z,3.28
2022-10-09T21:40:46.994Z,3.25
2022-10-09T21:43:13.496Z,3.60
2022-10-09T21:45:40.527Z,3.10
2022-10-09T21:48:07.049Z,3.40
2022-10-09T21:50:34.476Z,3.92
2022-10-09T21:53:00.864Z,2.90
2022-10-09T21:55:27.471Z,3.03
2022-10-09T21:57:54.426Z,3.08
2022-10-09T22:00:21.499Z,2.87
2022-10-09T22:02:48.072Z,3.22
2022-10-09T22:05:15.378Z,3.05
2022-10-09T22:07:41.803Z,3.30
2022-10-09T22:10:08.714Z,3.50
2022-10-09T22:12:35.165Z,3.17
2022-10-09T22:15:01.763Z,3.50
2022-10-09T22:17:28.296Z,3.15
2022-10-09T22:19:54.863Z,3.10
2022-10-09T22:22:23.696Z,3.80
2022-10-09T22:24:51.108Z,3.67
2022-10-09T22:27:18.864Z,3.53
2022-10-09T22:29:45.304Z,2.95
2022-10-09T22:32:11.965Z,3.13
2022-10-09T22:34:38.525Z,3.60
2022-10-09T22:37:05.024Z,3.20
2022-10-09T22:39:31.643Z,2.95
2022-10-09T22:41:58.008Z,3.10
2022-10-09T22:44:24.435Z,2.78
2022-10-09T22:46:51.182Z,2.55
2022-10-09T22:49:18.204Z,2.40
2022-10-09T22:51:45.377Z,2.55
2022-10-09T22:54:13.191Z,2.80
2022-10-09T22:56:43.553Z,2.85
2022-10-09T22:59:12.105Z,3.15
2022-10-09T23:01:54.935Z,3.20
2022-10-09T23:04:22.644Z,2.72
2022-10-09T23:06:52.487Z,3.00
2022-10-09T23:09:19.649Z,2.72
2022-10-09T23:11:46.139Z,2.95
2022-10-09T23:14:13.245Z,2.67
2022-10-09T23:16:40.215Z,2.45
2022-10-09T23:19:07.468Z,2.47
2022-10-09T23:21:35.265Z,2.80
2022-10-09T23:24:01.762Z,2.33
2022-10-09T23:26:30.694Z,2.20
2022-10-09T23:29:02.548Z,2.22
2022-10-09T23:31:29.602Z,2.20
2022-10-09T23:33:56.722Z,2.22
2022-10-09T23:36:25.345Z,2.25
2022-10-09T23:38:52.104Z,2.33
2022-10-09T23:41:21.196Z,2.30
2022-10-09T23:43:48.478Z,2.10
2022-10-09T23:46:20.211Z,2.03
2022-10-09T23:48:47.917Z,2.20
2022-10-09T23:51:15.175Z,2.33
2022-10-09T23:53:42.154Z,2.70
2022-10-09T23:56:38.784Z,2.22
2022-10-09T23:59:06.249Z,2.10
